Time;durP1;ratioP1;P1;durP2;ratioP2;P2;SDS_P1;SDS_P2;PMS_P1;PMS_P2;Temp;Humidity;BMP_temperature;BMP_pressure;BME280_temperature;BME280_humidity;BME280_pressure;Samples;Min_cycle;Max_cycle;Signal;HPM_P1;HPM_P2
2021/12/25 00:01:00;;;;;;;3.28;2.75;;;-4.60;17.50;;;;;;5034084;28;20170;-76
2021/12/25 00:03:26;;;;;;;2.05;1.95;;;-4.60;21.20;;;;;;5032753;28;20175;-72
2021/12/25 00:05:52;;;;;;;2.63;2.43;;;-4.60;22.80;;;;;;5033915;28;20656;-70
2021/12/25 00:08:19;;;;;;;4.00;3.70;;;-4.60;21.20;;;;;;5033532;28;20595;-74
2021/12/25 00:10:45;;;;;;;3.20;3.00;;;-4.60;21.20;;;;;;5033792;28;20620;-66
2021/12/25 00:13:11;;;;;;;2.70;2.50;;;-4.60;21.20;;;;;;5032373;28;20179;-76
2021/12/25 00:15:36;;;;;;;6.47;3.60;;;-4.60;21.20;;;;;;5033634;28;20195;-73
2021/12/25 00:18:02;;;;;;;2.77;2.67;;;-4.70;21.20;;;;;;5033456;28;20182;-67
2021/12/25 00:20:28;;;;;;;2.60;2.40;;;-4.70;21.20;;;;;;5032456;28;20183;-75
2021/12/25 00:22:54;;;;;;;2.73;2.63;;;-4.70;21.10;;;;;;5032521;28;20426;-75
2021/12/25 00:25:21;;;;;;;2.50;2.40;;;-4.70;21.10;;;;;;5033465;28;20182;-66
2021/12/25 00:30:23;;;;;;;2.03;1.90;;;-4.70;21.20;;;;;;5033063;28;20655;-66
2021/12/25 00:32:57;;;;;;;3.38;3.15;;;-4.70;21.20;;;;;;5032385;28;20571;-73
2021/12/25 00:35:22;;;;;;;2.33;2.10;;;-4.70;21.30;;;;;;5033398;28;20168;-75
2021/12/25 00:37:48;;;;;;;3.23;3.03;;;-4.70;21.20;;;;;;5033088;28;20513;-74
2021/12/25 00:40:14;;;;;;;2.23;2.13;;;-4.70;21.20;;;;;;5033390;28;20172;-75
2021/12/25 00:42:40;;;;;;;2.00;1.87;;;-4.70;21.10;;;;;;5032259;28;20497;-66
2021/12/25 00:45:06;;;;;;;2.60;2.50;;;-4.70;21.30;;;;;;5033431;28;20413;-71
2021/12/25 00:47:31;;;;;;;2.53;2.43;;;-4.70;21.20;;;;;;5031691;28;20449;-75
2021/12/25 00:49:57;;;;;;;2.50;2.40;;;-4.70;21.30;;;;;;5032751;28;20480;-73
2021/12/25 00:52:23;;;;;;;2.87;2.67;;;-4.80;21.10;;;;;;5032151;28;20528;-74
2021/12/25 00:54:48;;;;;;;2.23;2.13;;;-4.80;21.10;;;;;;5033163;28;20171;-66
2021/12/25 00:57:14;;;;;;;2.63;2.53;;;-4.80;21.10;;;;;;5032890;28;20248;-67
2021/12/25 00:59:40;;;;;;;5.27;4.27;;;-4.90;21.00;;;;;;5033164;28;20175;-66
2021/12/25 01:02:06;;;;;;;12.27;3.20;;;-4.80;21.10;;;;;;5031780;28;20423;-66
2021/12/25 01:04:31;;;;;;;2.57;2.37;;;-4.90;21.00;;;;;;5031284;28;20179;-75
2021/12/25 01:06:57;;;;;;;4.20;3.80;;;-4.90;21.00;;;;;;5032434;28;20203;-68
2021/12/25 01:09:23;;;;;;;7.60;3.00;;;-4.90;21.00;;;;;;5032997;28;20564;-74
2021/12/25 01:11:50;;;;;;;2.73;2.63;;;-5.00;17.40;;;;;;5032757;28;20186;-74
2021/12/25 01:17:41;;;;;;;5.22;3.55;;;-5.00;12.20;;;;;;5030312;28;20199;-67
2021/12/25 01:30:36;;;;;;;3.10;2.70;;;-5.20;1.50;;;;;;5032703;28;20160;-66
2021/12/25 01:48:38;;;;;;;2.08;1.98;;;-5.40;1.00;;;;;;5012834;28;20636;-66
2021/12/25 01:51:05;;;;;;;1.55;1.45;;;-5.40;4.50;;;;;;5012983;28;20176;-66
2021/12/25 01:53:30;;;;;;;2.05;1.92;;;-5.30;6.20;;;;;;5031693;28;20240;-75
2021/12/25 01:55:59;;;;;;;3.17;3.00;;;-5.40;1.00;;;;;;5031534;28;20203;-66
2021/12/25 01:58:25;;;;;;;2.92;2.65;;;-5.40;1.00;;;;;;5032266;28;20180;-74
2021/12/25 02:00:53;;;;;;;2.37;2.27;;;-5.50;1.00;;;;;;5034815;28;20536;-66
2021/12/25 02:03:21;;;;;;;2.65;2.45;;;-5.50;1.00;;;;;;5035210;28;20179;-75
2021/12/25 02:05:48;;;;;;;3.10;2.80;;;-5.50;1.00;;;;;;5036324;28;20192;-70
2021/12/25 02:08:14;;;;;;;5.97;2.55;;;-5.50;1.00;;;;;;5034873;28;20200;-66
2021/12/25 02:10:40;;;;;;;2.55;2.45;;;-5.50;1.00;;;;;;5036088;28;20246;-66
2021/12/25 02:13:09;;;;;;;8.17;2.80;;;-5.60;1.00;;;;;;5035114;28;20180;-74
2021/12/25 02:15:34;;;;;;;3.20;2.55;;;-5.60;1.00;;;;;;5035606;28;20409;-67
2021/12/25 02:18:26;;;;;;;1.97;1.87;;;-5.60;1.00;;;;;;5035352;28;20171;-67
2021/12/25 02:23:22;;;;;;;1.75;1.65;;;-5.60;1.00;;;;;;5035080;28;20171;-74
2021/12/25 02:25:50;;;;;;;1.90;1.80;;;-5.50;1.00;;;;;;5035661;28;21053;-73
2021/12/25 02:28:16;;;;;;;2.58;2.47;;;-5.50;1.00;;;;;;5035805;28;20199;-66
2021/12/25 02:30:45;;;;;;;4.25;2.60;;;-5.60;1.00;;;;;;5035428;28;20191;-74
2021/12/25 02:33:10;;;;;;;1.92;1.83;;;-5.60;1.00;;;;;;5034858;28;20163;-68
2021/12/25 02:35:37;;;;;;;1.87;1.77;;;-5.50;1.00;;;;;;5035391;28;20190;-74
2021/12/25 02:38:03;;;;;;;3.90;2.72;;;-5.50;1.00;;;;;;5035082;28;20179;-65
2021/12/25 02:40:29;;;;;;;2.67;2.47;;;-5.50;1.00;;;;;;5035633;28;20244;-75
2021/12/25 02:42:55;;;;;;;4.90;2.43;;;-5.50;1.00;;;;;;5034394;28;20210;-74
2021/12/25 02:45:22;;;;;;;2.47;2.37;;;-5.60;1.00;;;;;;5034139;28;20659;-75
2021/12/25 02:47:51;;;;;;;1.98;1.88;;;-5.50;1.00;;;;;;5035263;28;20278;-67
2021/12/25 02:50:30;;;;;;;2.72;2.63;;;-5.50;1.00;;;;;;5035383;28;20183;-75
2021/12/25 02:52:59;;;;;;;1.60;1.50;;;-5.60;1.00;;;;;;5033986;28;20262;-72
2021/12/25 02:55:26;;;;;;;4.07;3.67;;;-5.60;1.00;;;;;;5033732;28;20179;-65
2021/12/25 02:57:52;;;;;;;3.38;2.72;;;-5.60;1.00;;;;;;5035166;28;20159;-66
2021/12/25 03:00:21;;;;;;;1.95;1.85;;;-5.90;1.00;;;;;;5033551;28;20234;-74
2021/12/25 03:02:47;;;;;;;4.75;2.60;;;-6.00;1.00;;;;;;5034320;28;20267;-70
2021/12/25 03:05:13;;;;;;;2.35;2.22;;;-6.00;1.00;;;;;;5034998;28;20183;-75
2021/12/25 03:07:40;;;;;;;2.07;1.97;;;-6.00;1.00;;;;;;5035110;28;20195;-66
2021/12/25 03:10:07;;;;;;;2.65;2.55;;;-6.00;1.00;;;;;;5034673;28;20438;-75
2021/12/25 03:12:45;;;;;;;2.10;2.00;;;-6.00;1.00;;;;;;5032853;28;20583;-73
2021/12/25 03:15:15;;;;;;;2.50;2.30;;;-6.00;1.00;;;;;;5032174;28;20183;-67
2021/12/25 03:17:41;;;;;;;2.25;2.15;;;-5.90;1.00;;;;;;5034712;28;20648;-66
2021/12/25 03:20:10;;;;;;;1.93;1.83;;;-5.90;1.00;;;;;;5034735;28;20175;-75
2021/12/25 03:22:37;;;;;;;2.30;1.80;;;-5.90;1.00;;;;;;5034048;28;20407;-66
2021/12/25 03:25:09;;;;;;;2.75;2.55;;;-5.90;1.00;;;;;;5034540;28;20306;-74
2021/12/25 03:27:45;;;;;;;6.50;2.30;;;-5.90;1.00;;;;;;5034296;28;20720;-66
2021/12/25 03:30:16;;;;;;;3.28;2.42;;;-6.10;1.00;;;;;;5034072;28;20171;-66
2021/12/25 03:32:42;;;;;;;1.70;1.60;;;-6.20;1.00;;;;;;5033436;28;20891;-66
2021/12/25 03:35:08;;;;;;;1.92;1.83;;;-6.20;1.00;;;;;;5034490;28;20163;-66
2021/12/25 03:37:34;;;;;;;2.40;2.30;;;-6.20;1.00;;;;;;5034258;28;20270;-75
2021/12/25 03:39:59;;;;;;;2.73;2.53;;;-6.20;1.00;;;;;;5034569;28;20634;-69
2021/12/25 03:42:25;;;;;;;2.13;2.03;;;-6.10;1.00;;;;;;5033779;28;20175;-66
2021/12/25 03:44:51;;;;;;;2.77;2.67;;;-6.00;1.00;;;;;;5034065;28;20179;-73
2021/12/25 03:47:28;;;;;;;1.93;1.83;;;-5.90;1.00;;;;;;5033686;28;20537;-69
2021/12/25 03:58:14;;;;;;;2.60;2.40;;;-5.80;1.40;;;;;;5018244;28;20182;-66
2021/12/25 04:00:42;;;;;;;1.90;1.80;;;-5.80;2.00;;;;;;5034097;28;20188;-66
2021/12/25 04:03:16;;;;;;;2.25;2.00;;;-5.70;2.80;;;;;;5033070;28;20247;-67
2021/12/25 04:05:45;;;;;;;2.53;2.42;;;-5.70;3.40;;;;;;5033363;28;20246;-66
2021/12/25 04:08:13;;;;;;;2.30;2.20;;;-5.80;1.10;;;;;;5033566;28;20191;-66
2021/12/25 04:10:43;;;;;;;2.70;2.60;;;-5.80;1.00;;;;;;5033881;28;20170;-66
2021/12/25 04:13:11;;;;;;;2.22;2.13;;;-5.80;1.00;;;;;;5032891;28;20159;-66
2021/12/25 04:15:37;;;;;;;3.55;3.35;;;-5.90;1.00;;;;;;5033667;28;20671;-75
2021/12/25 04:18:04;;;;;;;2.33;2.23;;;-5.90;1.00;;;;;;5033525;28;20214;-75
2021/12/25 04:20:31;;;;;;;2.22;2.13;;;-5.90;1.00;;;;;;5033750;28;20407;-75
2021/12/25 04:23:05;;;;;;;2.30;2.20;;;-5.90;1.00;;;;;;5030753;28;20175;-66
2021/12/25 04:25:33;;;;;;;1.50;1.40;;;-5.90;1.00;;;;;;5032194;28;20175;-74
2021/12/25 04:28:14;;;;;;;2.20;2.10;;;-5.90;1.00;;;;;;5033386;28;20230;-75
2021/12/25 04:42:44;;;;;;;2.45;2.35;;;-5.90;1.00;;;;;;5032549;28;20313;-69
2021/12/25 05:01:45;;;;;;;2.70;2.50;;;-5.90;1.00;;;;;;5044651;28;20282;-75
2021/12/25 05:06:09;;;;;;;4.60;2.83;;;-6.10;1.00;;;;;;5033366;28;20199;-75
2021/12/25 05:08:35;;;;;;;3.90;3.57;;;-6.10;1.00;;;;;;5033416;28;20233;-73
2021/12/25 05:11:00;;;;;;;2.50;2.40;;;-6.10;1.00;;;;;;5033149;28;20263;-74
2021/12/25 05:13:26;;;;;;;2.43;2.23;;;-6.10;1.00;;;;;;5031335;28;20178;-66
2021/12/25 05:15:52;;;;;;;2.00;1.90;;;-6.20;1.00;;;;;;5032788;28;20480;-66
2021/12/25 05:18:18;;;;;;;3.27;2.73;;;-6.20;1.00;;;;;;5032922;28;20172;-66
2021/12/25 05:20:43;;;;;;;3.57;2.70;;;-6.20;1.00;;;;;;5032573;28;20179;-68
2021/12/25 05:23:09;;;;;;;2.73;2.63;;;-6.20;1.00;;;;;;5032183;28;20605;-75
2021/12/25 05:25:35;;;;;;;2.33;2.17;;;-6.20;1.00;;;;;;5032630;28;20278;-67
2021/12/25 05:28:02;;;;;;;2.40;2.30;;;-6.20;1.00;;;;;;5032866;28;20552;-68
2021/12/25 05:30:30;;;;;;;1.90;1.80;;;-6.20;1.00;;;;;;5032651;28;20175;-74
2021/12/25 05:32:56;;;;;;;1.90;1.80;;;-6.20;1.00;;;;;;5032116;28;20195;-75
2021/12/25 05:35:22;;;;;;;8.40;3.90;;;-6.20;1.00;;;;;;5035150;28;20168;-75
2021/12/25 05:37:47;;;;;;;4.83;2.23;;;-6.30;1.00;;;;;;5036590;28;20532;-69
2021/12/25 05:40:13;;;;;;;2.37;2.27;;;-6.30;1.00;;;;;;5034834;28;20167;-68
2021/12/25 05:42:40;;;;;;;2.08;1.70;;;-6.30;1.00;;;;;;5035858;28;20176;-75
2021/12/25 05:45:06;;;;;;;1.70;1.60;;;-6.40;1.00;;;;;;5036328;28;20182;-73
2021/12/25 05:47:32;;;;;;;3.40;3.15;;;-6.40;1.00;;;;;;5036489;28;20203;-65
2021/12/25 05:49:58;;;;;;;2.30;2.20;;;-6.40;1.00;;;;;;5036354;28;20241;-71
2021/12/25 05:52:24;;;;;;;5.15;4.85;;;-6.40;1.00;;;;;;5035760;28;20429;-70
2021/12/25 05:54:50;;;;;;;3.25;2.67;;;-6.40;1.00;;;;;;5036269;28;20203;-66
2021/12/25 05:57:16;;;;;;;2.47;2.37;;;-6.50;1.00;;;;;;5035974;28;20555;-74
2021/12/25 05:59:41;;;;;;;2.40;2.30;;;-6.50;1.00;;;;;;5034857;28;20176;-73
2021/12/25 06:02:07;;;;;;;4.83;2.63;;;-6.50;1.00;;;;;;5034537;28;20600;-73
2021/12/25 06:04:34;;;;;;;2.10;2.00;;;-6.50;1.00;;;;;;5036352;28;20160;-65
2021/12/25 06:07:00;;;;;;;3.30;3.00;;;-6.50;1.00;;;;;;5035944;28;20191;-73
2021/12/25 06:09:26;;;;;;;4.20;4.00;;;-6.60;1.00;;;;;;5036261;28;20644;-74
2021/12/25 06:11:52;;;;;;;2.70;2.50;;;-6.60;1.00;;;;;;5035702;28;20479;-66
2021/12/25 06:14:20;;;;;;;1.70;1.60;;;-6.70;1.00;;;;;;5035290;28;20689;-65
2021/12/25 06:16:47;;;;;;;3.42;3.20;;;-6.70;1.00;;;;;;5035355;28;20191;-65
2021/12/25 06:19:13;;;;;;;4.15;3.75;;;-6.70;1.00;;;;;;5035690;28;20164;-71
2021/12/25 06:21:39;;;;;;;2.63;2.53;;;-6.70;1.00;;;;;;5035786;28;20635;-65
2021/12/25 06:24:05;;;;;;;2.23;2.13;;;-6.70;1.00;;;;;;5035067;28;20187;-73
2021/12/25 06:26:32;;;;;;;3.67;3.50;;;-6.70;1.00;;;;;;5035521;28;20199;-72
2021/12/25 06:28:58;;;;;;;2.47;2.38;;;-6.70;1.00;;;;;;5035860;28;20227;-74
2021/12/25 06:31:24;;;;;;;2.50;2.40;;;-6.70;1.00;;;;;;5035629;28;20203;-65
2021/12/25 06:33:50;;;;;;;2.88;2.65;;;-6.70;1.00;;;;;;5034263;28;20844;-74
2021/12/25 06:36:16;;;;;;;2.80;2.70;;;-6.70;1.00;;;;;;5034346;28;20206;-75
2021/12/25 06:38:42;;;;;;;8.53;2.23;;;-6.70;1.00;;;;;;5035662;28;20250;-66
2021/12/25 06:41:10;;;;;;;3.05;2.85;;;-6.70;1.00;;;;;;5035556;28;20854;-65
2021/12/25 06:43:36;;;;;;;2.10;2.00;;;-6.80;1.00;;;;;;5034801;28;20528;-68
2021/12/25 06:46:02;;;;;;;15.07;3.20;;;-6.80;1.00;;;;;;5032627;28;20192;-72
2021/12/25 06:48:28;;;;;;;2.10;1.90;;;-6.90;1.00;;;;;;5033607;28;20512;-65
2021/12/25 06:50:54;;;;;;;2.90;2.73;;;-6.90;1.00;;;;;;5034601;28;20266;-73
2021/12/25 06:53:20;;;;;;;2.50;2.40;;;-6.90;1.00;;;;;;5033095;28;20926;-64
2021/12/25 06:55:45;;;;;;;2.70;2.60;;;-6.90;1.00;;;;;;5035395;28;20418;-66
2021/12/25 06:58:12;;;;;;;3.10;2.80;;;-6.90;1.00;;;;;;5035165;28;20183;-74
2021/12/25 07:00:37;;;;;;;2.70;2.60;;;-6.90;1.00;;;;;;5035078;28;20425;-65
2021/12/25 07:03:03;;;;;;;2.70;2.43;;;-6.90;1.00;;;;;;5033003;28;20198;-73
2021/12/25 07:05:29;;;;;;;2.50;2.40;;;-6.90;1.00;;;;;;5035120;28;20406;-70
2021/12/25 07:07:55;;;;;;;4.70;2.90;;;-6.90;1.00;;;;;;5034819;28;20199;-66
2021/12/25 07:10:21;;;;;;;6.30;2.00;;;-6.90;1.00;;;;;;5035105;28;20410;-73
2021/12/25 07:12:49;;;;;;;2.10;2.00;;;-6.90;1.00;;;;;;5033268;28;20178;-70
2021/12/25 07:15:16;;;;;;;2.63;2.42;;;-6.90;1.00;;;;;;5033736;28;20174;-73
2021/12/25 07:17:42;;;;;;;1.95;1.85;;;-7.00;1.00;;;;;;5033741;28;20592;-73
2021/12/25 07:20:09;;;;;;;2.67;2.58;;;-7.00;1.00;;;;;;5034891;28;20573;-73
2021/12/25 07:22:35;;;;;;;2.10;2.00;;;-7.00;1.00;;;;;;5033716;28;20536;-67
2021/12/25 07:25:01;;;;;;;2.42;2.33;;;-7.00;1.00;;;;;;5019367;28;20180;-65
2021/12/25 07:27:27;;;;;;;2.07;1.97;;;-6.90;1.00;;;;;;5015921;28;20253;-64
2021/12/25 07:29:52;;;;;;;3.00;2.67;;;-6.90;1.00;;;;;;5034484;28;20406;-74
2021/12/25 07:32:18;;;;;;;2.77;2.67;;;-6.90;1.00;;;;;;5033459;28;20168;-68
2021/12/25 07:34:47;;;;;;;3.10;3.00;;;-6.80;1.00;;;;;;5034195;28;20214;-74
2021/12/25 07:37:14;;;;;;;1.73;1.63;;;-6.80;1.00;;;;;;5033216;28;20600;-73
2021/12/25 07:39:41;;;;;;;2.53;2.42;;;-6.80;1.00;;;;;;5034405;28;20171;-74
2021/12/25 07:42:09;;;;;;;2.60;2.50;;;-6.90;1.00;;;;;;5033603;28;20171;-71
2021/12/25 07:44:34;;;;;;;2.10;2.00;;;-6.90;1.00;;;;;;5034190;28;20617;-67
2021/12/25 07:47:00;;;;;;;3.60;3.40;;;-6.90;1.00;;;;;;5032748;28;20275;-65
2021/12/25 07:49:27;;;;;;;2.83;2.73;;;-6.80;1.00;;;;;;5033923;28;20230;-74
2021/12/25 07:51:52;;;;;;;3.72;3.42;;;-6.80;1.00;;;;;;5034064;28;20211;-67
2021/12/25 07:54:18;;;;;;;2.60;2.50;;;-6.80;1.00;;;;;;5033425;28;20263;-73
2021/12/25 07:56:44;;;;;;;4.63;3.05;;;-6.70;1.00;;;;;;5032989;28;20184;-65
2021/12/25 07:59:10;;;;;;;1.95;1.85;;;-6.70;1.00;;;;;;5033614;28;20199;-65
2021/12/25 08:01:36;;;;;;;2.10;2.00;;;-6.60;1.00;;;;;;5034024;28;20183;-74
2021/12/25 08:04:03;;;;;;;2.40;2.30;;;-6.60;1.00;;;;;;5032999;28;20179;-64
2021/12/25 08:06:30;;;;;;;2.20;2.10;;;-6.70;1.00;;;;;;5033523;28;20266;-65
2021/12/25 08:09:00;;;;;;;2.20;2.10;;;-6.60;1.00;;;;;;5033688;28;20202;-65
2021/12/25 08:11:26;;;;;;;2.30;2.17;;;-6.60;1.00;;;;;;5033564;28;20641;-65
2021/12/25 08:13:51;;;;;;;2.03;1.93;;;-6.60;1.00;;;;;;5032774;28;20214;-71
2021/12/25 08:16:17;;;;;;;3.10;2.40;;;-6.50;1.00;;;;;;5033554;28;20846;-65
2021/12/25 08:18:43;;;;;;;3.20;2.33;;;-6.40;1.00;;;;;;5033593;28;20171;-66
2021/12/25 08:21:08;;;;;;;2.00;1.90;;;-6.40;1.00;;;;;;5033814;28;20226;-67
2021/12/25 08:23:34;;;;;;;2.07;1.97;;;-6.50;1.00;;;;;;5032470;28;20533;-74
2021/12/25 08:26:03;;;;;;;2.00;1.90;;;-6.60;1.00;;;;;;5033095;28;20273;-65
2021/12/25 08:28:29;;;;;;;3.28;3.08;;;-6.70;1.00;;;;;;5032342;28;20196;-73
2021/12/25 08:30:54;;;;;;;3.23;2.50;;;-6.70;1.00;;;;;;5033342;28;20252;-64
2021/12/25 08:33:20;;;;;;;2.50;2.40;;;-6.60;1.00;;;;;;5032732;28;20168;-74
2021/12/25 08:35:46;;;;;;;2.80;2.60;;;-6.60;1.00;;;;;;5031920;28;20235;-74
2021/12/25 08:38:12;;;;;;;7.77;3.30;;;-6.60;1.00;;;;;;5033548;28;20305;-73
2021/12/25 08:40:40;;;;;;;2.10;2.00;;;-6.60;1.00;;;;;;5033217;28;20217;-65
2021/12/25 08:43:06;;;;;;;3.00;2.42;;;-6.50;1.00;;;;;;5031960;28;20167;-65
2021/12/25 08:47:59;;;;;;;2.90;2.70;;;-6.30;1.00;;;;;;5033732;28;20286;-65
2021/12/25 08:50:25;;;;;;;2.40;2.30;;;-6.20;1.00;;;;;;5033023;28;20270;-65
2021/12/25 08:52:51;;;;;;;3.43;2.40;;;-6.10;1.00;;;;;;5032376;28;20325;-73
2021/12/25 08:55:17;;;;;;;2.80;2.60;;;-6.00;1.00;;;;;;5032922;28;20195;-65
2021/12/25 08:57:43;;;;;;;2.58;2.47;;;-5.80;1.00;;;;;;5033207;28;20525;-66
2021/12/25 09:00:09;;;;;;;2.13;2.03;;;-5.70;1.00;;;;;;5032471;28;20172;-72
2021/12/25 09:02:35;;;;;;;2.10;2.00;;;-5.60;2.20;;;;;;5032080;28;20673;-73
2021/12/25 09:05:01;;;;;;;1.90;1.80;;;-5.60;6.90;;;;;;5032904;28;20250;-74
2021/12/25 09:07:27;;;;;;;2.00;1.90;;;-5.40;13.80;;;;;;5032953;28;20261;-74
2021/12/25 09:09:53;;;;;;;2.43;2.23;;;-5.20;20.80;;;;;;5032197;28;20172;-65
2021/12/25 09:12:20;;;;;;;2.30;2.20;;;-5.10;20.80;;;;;;5032162;28;20313;-65
2021/12/25 09:14:46;;;;;;;1.85;1.75;;;-5.00;20.80;;;;;;5032820;28;20160;-74
2021/12/25 09:17:13;;;;;;;1.93;1.83;;;-4.90;17.00;;;;;;5033029;28;20237;-66
2021/12/25 09:19:39;;;;;;;2.63;2.42;;;-4.80;12.40;;;;;;5032216;28;20430;-69
2021/12/25 09:22:08;;;;;;;2.92;2.72;;;-4.70;1.00;;;;;;5031897;28;20609;-65
2021/12/25 09:24:34;;;;;;;2.90;1.98;;;-4.60;1.00;;;;;;5032120;28;20179;-73
2021/12/25 09:27:00;;;;;;;2.60;2.50;;;-4.50;1.00;;;;;;5032798;28;20237;-71
2021/12/25 09:29:26;;;;;;;2.55;2.33;;;-4.40;1.00;;;;;;5032131;28;20183;-65
2021/12/25 09:31:52;;;;;;;2.23;2.13;;;-4.30;1.00;;;;;;5032589;28;20175;-72
2021/12/25 09:34:17;;;;;;;3.33;3.13;;;-4.40;1.00;;;;;;5031629;28;20183;-73
2021/12/25 09:36:43;;;;;;;2.97;2.77;;;-4.30;1.00;;;;;;5032668;28;20521;-73
2021/12/25 09:39:09;;;;;;;6.83;2.37;;;-4.30;1.00;;;;;;5032052;28;20180;-68
2021/12/25 09:41:35;;;;;;;2.60;2.50;;;-4.30;1.00;;;;;;5032852;28;20621;-75
2021/12/25 09:44:02;;;;;;;5.43;2.30;;;-4.20;1.00;;;;;;5031515;28;20184;-75
2021/12/25 09:46:28;;;;;;;8.65;3.05;;;-4.10;1.00;;;;;;5032779;28;20326;-67
2021/12/25 09:48:54;;;;;;;2.20;2.10;;;-4.00;1.00;;;;;;5032573;28;20650;-74
2021/12/25 09:51:21;;;;;;;2.77;2.67;;;-4.00;1.00;;;;;;5032320;28;20266;-74
2021/12/25 09:54:06;;;;;;;3.63;1.92;;;-3.90;1.00;;;;;;5031577;28;20486;-66
2021/12/25 09:56:34;;;;;;;2.25;2.15;;;-3.90;1.00;;;;;;5032086;28;20278;-66
2021/12/25 09:59:00;;;;;;;2.90;2.70;;;-3.90;1.00;;;;;;5032701;28;20179;-74
2021/12/25 10:01:54;;;;;;;3.42;3.22;;;-3.90;1.00;;;;;;5032410;28;20203;-73
2021/12/25 10:04:35;;;;;;;2.88;2.78;;;-3.90;1.00;;;;;;5031522;28;20195;-75
2021/12/25 10:07:34;;;;;;;2.40;2.30;;;-3.80;1.00;;;;;;5031119;28;20203;-75
2021/12/25 10:10:10;;;;;;;3.78;2.65;;;-3.50;1.00;;;;;;5030928;28;20175;-70
2021/12/25 10:12:46;;;;;;;1.98;1.88;;;-3.40;1.00;;;;;;5031222;28;20601;-65
2021/12/25 10:15:22;;;;;;;3.10;2.90;;;-3.40;1.00;;;;;;5031735;28;20247;-66
2021/12/25 10:17:50;;;;;;;2.70;2.50;;;-3.40;1.00;;;;;;5014978;28;20185;-65
2021/12/25 10:20:24;;;;;;;2.60;2.50;;;-3.40;1.00;;;;;;5031782;28;20259;-66
2021/12/25 10:23:14;;;;;;;3.92;2.50;;;-3.30;1.00;;;;;;5033390;28;20633;-66
2021/12/25 10:25:49;;;;;;;2.45;2.35;;;-3.20;1.00;;;;;;5034793;28;20196;-68
2021/12/25 10:28:19;;;;;;;3.30;3.10;;;-3.10;1.00;;;;;;5037689;28;20614;-75
2021/12/25 10:30:44;;;;;;;3.03;2.88;;;-3.10;1.00;;;;;;5034949;28;20164;-75
2021/12/25 10:33:32;;;;;;;1.90;1.80;;;-3.00;1.00;;;;;;5033692;28;20198;-71
2021/12/25 10:36:00;;;;;;;2.22;2.13;;;-3.00;1.00;;;;;;5034749;28;20234;-66
2021/12/25 10:38:28;;;;;;;3.38;3.08;;;-3.00;1.00;;;;;;5035380;28;20575;-74
2021/12/25 10:41:22;;;;;;;3.88;3.33;;;-2.90;1.00;;;;;;5033848;28;20176;-71
2021/12/25 10:44:08;;;;;;;2.83;2.72;;;-2.80;1.00;;;;;;5034204;28;20538;-73
2021/12/25 10:46:54;;;;;;;3.60;2.85;;;-2.80;1.00;;;;;;5035161;28;20269;-69
2021/12/25 10:49:21;;;;;;;2.53;2.42;;;-2.80;1.00;;;;;;5035506;28;20191;-75
2021/12/25 10:51:47;;;;;;;2.90;2.80;;;-2.70;1.00;;;;;;5035427;28;20720;-69
2021/12/25 10:54:15;;;;;;;3.22;2.60;;;-2.80;1.00;;;;;;5033994;28;20699;-65
2021/12/25 10:56:42;;;;;;;2.58;2.38;;;-2.70;1.00;;;;;;5035209;28;20186;-73
2021/12/25 10:59:11;;;;;;;3.90;3.55;;;-2.60;1.00;;;;;;5035480;28;20195;-75
2021/12/25 11:01:42;;;;;;;3.17;2.90;;;-2.50;1.00;;;;;;5035281;28;20199;-75
2021/12/25 11:04:27;;;;;;;8.23;4.28;;;-2.50;1.00;;;;;;5033036;28;20584;-65
2021/12/25 11:06:54;;;;;;;3.35;3.05;;;-2.40;1.00;;;;;;5033868;28;20560;-73
2021/12/25 11:09:19;;;;;;;3.92;3.72;;;-2.40;1.00;;;;;;5035075;28;20206;-74
2021/12/25 11:12:05;;;;;;;4.13;3.80;;;-2.30;1.00;;;;;;5035166;28;20164;-75
2021/12/25 11:14:31;;;;;;;4.57;4.18;;;-2.40;1.00;;;;;;5034482;28;20580;-67
2021/12/25 11:16:56;;;;;;;5.20;4.67;;;-2.40;1.00;;;;;;5034911;28;20195;-65
2021/12/25 11:19:32;;;;;;;3.60;3.30;;;-2.50;1.00;;;;;;5033568;28;20171;-75
2021/12/25 11:21:59;;;;;;;3.38;3.08;;;-2.50;1.00;;;;;;5034517;28;20174;-70
2021/12/25 11:24:35;;;;;;;8.23;3.95;;;-2.50;1.00;;;;;;5034877;28;20520;-74
2021/12/25 11:27:04;;;;;;;3.25;3.05;;;-2.50;1.00;;;;;;5034803;28;20746;-66
2021/12/25 11:29:31;;;;;;;3.20;3.00;;;-2.40;1.00;;;;;;5034769;28;20184;-65
2021/12/25 11:31:58;;;;;;;9.55;3.63;;;-2.40;1.00;;;;;;5033286;28;20176;-75
2021/12/25 11:34:26;;;;;;;2.70;2.60;;;-2.40;1.00;;;;;;5034436;28;20190;-71
2021/12/25 11:36:54;;;;;;;4.15;2.85;;;-2.30;1.00;;;;;;5033206;28;20683;-66
2021/12/25 11:39:21;;;;;;;3.25;3.05;;;-2.30;1.00;;;;;;5034588;28;20183;-65
2021/12/25 11:41:49;;;;;;;4.38;3.42;;;-2.20;1.00;;;;;;5034508;28;20295;-73
2021/12/25 11:44:30;;;;;;;3.03;2.67;;;-2.20;1.00;;;;;;5033691;28;20194;-65
2021/12/25 11:46:56;;;;;;;3.08;2.88;;;-2.20;1.00;;;;;;5034276;28;20191;-75
2021/12/25 11:49:21;;;;;;;2.72;2.63;;;-2.10;1.00;;;;;;5033627;28;20241;-65
2021/12/25 11:51:47;;;;;;;2.43;2.33;;;-2.10;1.00;;;;;;5034196;28;20270;-72
2021/12/25 11:54:57;;;;;;;2.93;2.73;;;-2.00;1.00;;;;;;5033581;28;20170;-75
2021/12/25 11:58:20;;;;;;;2.58;2.33;;;-1.90;1.00;;;;;;5033899;28;20452;-75
2021/12/25 12:00:40;;;;;;;2.58;2.38;;;-1.90;1.00;;;;;;5033878;28;20313;-71
2021/12/25 12:03:06;;;;;;;2.10;2.00;;;-1.90;1.00;;;;;;5033083;28;20298;-76
2021/12/25 12:05:34;;;;;;;2.00;1.90;;;-1.90;1.00;;;;;;5033565;28;20167;-75
2021/12/25 12:08:15;;;;;;;2.30;2.20;;;-1.80;1.00;;;;;;5033760;28;20196;-75
2021/12/25 12:10:46;;;;;;;2.60;2.50;;;-1.80;1.00;;;;;;5033980;28;20159;-74
2021/12/25 12:13:25;;;;;;;3.88;2.80;;;-1.80;1.00;;;;;;5033052;28;20164;-66
2021/12/25 12:15:54;;;;;;;2.65;2.45;;;-1.70;1.00;;;;;;5032788;28;20188;-67
2021/12/25 12:18:33;;;;;;;3.33;3.03;;;-1.70;1.00;;;;;;5033953;28;20174;-75
2021/12/25 12:21:15;;;;;;;2.70;2.60;;;-1.70;1.00;;;;;;5033716;28;20178;-65
2021/12/25 12:26:52;;;;;;;3.47;3.17;;;-1.60;1.00;;;;;;5033443;28;20253;-66
2021/12/25 12:29:39;;;;;;;2.63;2.53;;;-1.70;1.00;;;;;;5033491;28;20195;-67
2021/12/25 12:32:29;;;;;;;2.97;2.80;;;-1.60;1.00;;;;;;5032656;28;20175;-73
2021/12/25 12:34:55;;;;;;;3.42;3.10;;;-1.60;1.00;;;;;;5032988;28;20195;-66
2021/12/25 12:37:20;;;;;;;10.83;3.13;;;-1.60;1.00;;;;;;5033327;28;20183;-75
2021/12/25 12:39:56;;;;;;;4.27;2.63;;;-1.50;1.00;;;;;;5033534;28;20199;-65
2021/12/25 12:42:47;;;;;;;2.70;2.50;;;-1.60;1.00;;;;;;5032663;28;20413;-75
2021/12/25 12:45:35;;;;;;;3.50;3.30;;;-1.50;1.00;;;;;;5031920;28;20164;-66
2021/12/25 12:48:14;;;;;;;2.20;2.10;;;-1.40;1.00;;;;;;5033312;28;20199;-65
2021/12/25 12:50:42;;;;;;;1.70;1.60;;;-1.40;1.00;;;;;;5033203;28;20206;-66
2021/12/25 12:53:09;;;;;;;3.28;2.97;;;-1.40;1.00;;;;;;5032419;28;20172;-66
2021/12/25 12:55:38;;;;;;;2.42;2.33;;;-1.30;1.00;;;;;;5033041;28;20187;-66
2021/12/25 12:58:17;;;;;;;3.58;3.30;;;-1.40;1.00;;;;;;5033153;28;20625;-67
2021/12/25 13:01:00;;;;;;;2.28;1.90;;;-1.40;1.00;;;;;;5031870;28;20628;-66
2021/12/25 13:03:28;;;;;;;2.63;2.53;;;-1.30;1.00;;;;;;5032184;28;20186;-66
2021/12/25 13:06:06;;;;;;;2.65;2.45;;;-1.30;1.00;;;;;;5032525;28;20192;-74
2021/12/25 13:08:34;;;;;;;2.60;2.45;;;-1.20;1.00;;;;;;5033076;28;20203;-67
2021/12/25 13:11:15;;;;;;;3.03;2.83;;;-1.20;1.00;;;;;;5033113;28;20155;-65
2021/12/25 13:13:51;;;;;;;3.35;3.15;;;-1.20;1.00;;;;;;5032126;28;20221;-67
2021/12/25 13:16:17;;;;;;;2.78;2.58;;;-1.20;1.00;;;;;;5032951;28;20194;-76
2021/12/25 13:18:46;;;;;;;2.47;2.38;;;-1.20;1.00;;;;;;5033056;28;20588;-75
2021/12/25 13:21:23;;;;;;;2.65;2.45;;;-1.20;1.00;;;;;;5032569;28;20178;-75
2021/12/25 13:23:54;;;;;;;3.67;3.38;;;-1.20;1.00;;;;;;5031904;28;20171;-65
2021/12/25 13:26:37;;;;;;;3.13;2.92;;;-1.20;1.00;;;;;;5032944;28;20188;-76
2021/12/25 13:29:06;;;;;;;6.43;3.33;;;-1.20;1.00;;;;;;5031655;28;20199;-65
2021/12/25 13:31:37;;;;;;;3.78;3.47;;;-1.20;1.00;;;;;;5032778;28;20164;-71
2021/12/25 13:34:18;;;;;;;13.18;3.65;;;-1.20;1.00;;;;;;5031925;28;20168;-66
2021/12/25 13:36:49;;;;;;;3.22;3.05;;;-1.20;1.00;;;;;;5032706;28;20195;-74
2021/12/25 13:39:18;;;;;;;2.45;2.35;;;-1.20;1.00;;;;;;5032500;28;20172;-66
2021/12/25 13:41:44;;;;;;;3.05;2.85;;;-1.20;1.00;;;;;;5032551;28;20199;-75
2021/12/25 13:44:13;;;;;;;3.80;3.50;;;-1.30;1.00;;;;;;5030521;28;20657;-75
2021/12/25 13:46:50;;;;;;;2.60;2.50;;;-1.20;1.00;;;;;;5031154;28;20195;-65
2021/12/25 13:49:28;;;;;;;2.70;2.60;;;-1.30;1.00;;;;;;5032492;28;20195;-74
2021/12/25 13:51:54;;;;;;;3.05;2.85;;;-1.30;1.00;;;;;;5032231;28;20187;-67
2021/12/25 13:54:21;;;;;;;3.60;3.30;;;-1.20;1.00;;;;;;5030175;28;20179;-66
2021/12/25 13:56:48;;;;;;;5.80;3.03;;;-1.20;1.00;;;;;;5035849;28;20227;-67
2021/12/25 13:59:14;;;;;;;3.35;3.15;;;-1.30;1.00;;;;;;5035330;28;20190;-67
2021/12/25 14:01:40;;;;;;;4.22;2.65;;;-1.30;1.00;;;;;;5036175;28;20175;-74
2021/12/25 14:04:11;;;;;;;2.80;2.57;;;-1.40;1.00;;;;;;5034332;28;20168;-75
2021/12/25 14:06:37;;;;;;;3.17;2.95;;;-1.40;1.00;;;;;;5036298;28;20286;-66
2021/12/25 14:09:05;;;;;;;2.88;2.67;;;-1.40;1.00;;;;;;5036466;28;20206;-75
2021/12/25 14:11:31;;;;;;;3.85;3.55;;;-1.40;1.00;;;;;;5037058;28;20164;-72
2021/12/25 14:13:57;;;;;;;2.70;2.60;;;-1.40;1.00;;;;;;5035889;28;20202;-75
2021/12/25 14:16:23;;;;;;;3.15;2.53;;;-1.40;1.00;;;;;;5036626;28;20190;-66
2021/12/25 14:18:49;;;;;;;3.30;3.10;;;-1.50;1.00;;;;;;5035185;28;20572;-66
2021/12/25 14:21:21;;;;;;;3.30;3.00;;;-1.60;1.00;;;;;;5036667;28;20168;-73
2021/12/25 14:24:00;;;;;;;3.85;3.65;;;-1.60;1.00;;;;;;5035684;28;20172;-66